sensor_id;sensor_type;location;lat;lon;timestamp;temperature;humidity
42037;DHT22;30340;52.004;5.908;2022-08-19T00:00:34;21.00;74.70
42037;DHT22;30340;52.004;5.908;2022-08-19T00:02:59;21.00;74.80
42037;DHT22;30340;52.004;5.908;2022-08-19T00:05:25;21.00;74.80
42037;DHT22;30340;52.004;5.908;2022-08-19T00:07:51;21.00;74.90
42037;DHT22;30340;52.004;5.908;2022-08-19T00:10:18;20.90;75.10
42037;DHT22;30340;52.004;5.908;2022-08-19T00:12:44;20.90;75.30
42037;DHT22;30340;52.004;5.908;2022-08-19T00:15:14;20.90;75.30
42037;DHT22;30340;52.004;5.908;2022-08-19T00:17:42;20.90;75.40
42037;DHT22;30340;52.004;5.908;2022-08-19T00:20:10;20.90;75.40
42037;DHT22;30340;52.004;5.908;2022-08-19T00:22:37;20.80;75.50
42037;DHT22;30340;52.004;5.908;2022-08-19T00:25:05;20.80;75.60
42037;DHT22;30340;52.004;5.908;2022-08-19T00:27:31;20.80;75.60
42037;DHT22;30340;52.004;5.908;2022-08-19T00:29:56;20.80;75.50
42037;DHT22;30340;52.004;5.908;2022-08-19T00:32:24;20.80;75.50
42037;DHT22;30340;52.004;5.908;2022-08-19T00:34:50;20.80;75.50
42037;DHT22;30340;52.004;5.908;2022-08-19T00:37:18;20.80;75.40
42037;DHT22;30340;52.004;5.908;2022-08-19T00:39:44;20.90;75.50
42037;DHT22;30340;52.004;5.908;2022-08-19T00:42:10;20.80;75.40
42037;DHT22;30340;52.004;5.908;2022-08-19T00:44:37;20.80;75.30
42037;DHT22;30340;52.004;5.908;2022-08-19T00:47:02;20.80;75.40
42037;DHT22;30340;52.004;5.908;2022-08-19T00:49:33;20.80;75.40
42037;DHT22;30340;52.004;5.908;2022-08-19T00:52:12;20.80;75.40
42037;DHT22;30340;52.004;5.908;2022-08-19T00:54:40;20.80;75.30
42037;DHT22;30340;52.004;5.908;2022-08-19T00:57:13;20.80;75.20
42037;DHT22;30340;52.004;5.908;2022-08-19T00:59:41;20.80;75.30
42037;DHT22;30340;52.004;5.908;2022-08-19T01:02:08;20.70;75.30
42037;DHT22;30340;52.004;5.908;2022-08-19T01:04:33;20.70;75.30
42037;DHT22;30340;52.004;5.908;2022-08-19T01:06:59;20.70;75.30
42037;DHT22;30340;52.004;5.908;2022-08-19T01:09:26;20.70;75.20
42037;DHT22;30340;52.004;5.908;2022-08-19T01:11:52;20.60;75.10
42037;DHT22;30340;52.004;5.908;2022-08-19T01:14:18;20.60;75.20
42037;DHT22;30340;52.004;5.908;2022-08-19T01:16:45;20.60;75.30
42037;DHT22;30340;52.004;5.908;2022-08-19T01:19:28;20.50;75.40
42037;DHT22;30340;52.004;5.908;2022-08-19T01:22:01;20.50;75.50
42037;DHT22;30340;52.004;5.908;2022-08-19T01:24:27;20.50;75.50
42037;DHT22;30340;52.004;5.908;2022-08-19T01:26:53;20.40;75.50
42037;DHT22;30340;52.004;5.908;2022-08-19T01:29:20;20.30;75.70
42037;DHT22;30340;52.004;5.908;2022-08-19T01:31:45;20.30;76.10
42037;DHT22;30340;52.004;5.908;2022-08-19T01:34:11;20.20;76.60
42037;DHT22;30340;52.004;5.908;2022-08-19T01:36:42;20.10;77.10
42037;DHT22;30340;52.004;5.908;2022-08-19T01:39:19;20.00;77.50
42037;DHT22;30340;52.004;5.908;2022-08-19T01:41:47;19.90;77.80
42037;DHT22;30340;52.004;5.908;2022-08-19T01:44:15;19.90;78.10
42037;DHT22;30340;52.004;5.908;2022-08-19T01:46:42;19.90;78.10
42037;DHT22;30340;52.004;5.908;2022-08-19T01:49:08;19.90;78.10
42037;DHT22;30340;52.004;5.908;2022-08-19T01:51:34;19.90;78.20
42037;DHT22;30340;52.004;5.908;2022-08-19T01:54:00;20.00;78.10
42037;DHT22;30340;52.004;5.908;2022-08-19T01:56:26;20.00;78.10
42037;DHT22;30340;52.004;5.908;2022-08-19T01:59:02;20.00;78.10
42037;DHT22;30340;52.004;5.908;2022-08-19T02:01:29;20.00;78.20
42037;DHT22;30340;52.004;5.908;2022-08-19T02:03:57;20.00;78.10
42037;DHT22;30340;52.004;5.908;2022-08-19T02:06:24;20.10;78.00
42037;DHT22;30340;52.004;5.908;2022-08-19T02:08:49;20.10;77.70
42037;DHT22;30340;52.004;5.908;2022-08-19T02:11:33;20.20;77.50
42037;DHT22;30340;52.004;5.908;2022-08-19T02:14:00;20.20;77.50
42037;DHT22;30340;52.004;5.908;2022-08-19T02:16:27;20.20;77.40
42037;DHT22;30340;52.004;5.908;2022-08-19T02:18:53;20.30;77.30
42037;DHT22;30340;52.004;5.908;2022-08-19T02:21:21;20.30;77.10
42037;DHT22;30340;52.004;5.908;2022-08-19T02:23:48;20.30;76.80
42037;DHT22;30340;52.004;5.908;2022-08-19T02:26:14;20.40;76.70
42037;DHT22;30340;52.004;5.908;2022-08-19T02:28:41;20.40;76.40
42037;DHT22;30340;52.004;5.908;2022-08-19T02:31:16;20.40;76.40
42037;DHT22;30340;52.004;5.908;2022-08-19T02:33:42;20.40;76.50
42037;DHT22;30340;52.004;5.908;2022-08-19T02:36:09;20.40;76.50
42037;DHT22;30340;52.004;5.908;2022-08-19T02:38:36;20.30;76.50
42037;DHT22;30340;52.004;5.908;2022-08-19T02:41:09;20.20;76.80
42037;DHT22;30340;52.004;5.908;2022-08-19T02:43:36;20.20;77.00
42037;DHT22;30340;52.004;5.908;2022-08-19T02:46:20;20.10;77.00
42037;DHT22;30340;52.004;5.908;2022-08-19T02:48:57;20.10;77.10
42037;DHT22;30340;52.004;5.908;2022-08-19T02:51:37;20.10;77.00
42037;DHT22;30340;52.004;5.908;2022-08-19T02:54:04;20.10;76.80
42037;DHT22;30340;52.004;5.908;2022-08-19T02:56:31;20.10;76.70
42037;DHT22;30340;52.004;5.908;2022-08-19T02:58:58;20.20;76.60
42037;DHT22;30340;52.004;5.908;2022-08-19T03:01:27;20.20;76.60
42037;DHT22;30340;52.004;5.908;2022-08-19T03:03:54;20.20;76.60
42037;DHT22;30340;52.004;5.908;2022-08-19T03:06:21;20.10;76.70
42037;DHT22;30340;52.004;5.908;2022-08-19T03:08:47;20.10;76.70
42037;DHT22;30340;52.004;5.908;2022-08-19T03:11:22;20.10;76.70
42037;DHT22;30340;52.004;5.908;2022-08-19T03:13:48;20.10;76.70
42037;DHT22;30340;52.004;5.908;2022-08-19T03:16:22;20.10;76.50
42037;DHT22;30340;52.004;5.908;2022-08-19T03:18:48;20.10;76.50
42037;DHT22;30340;52.004;5.908;2022-08-19T03:21:20;20.10;76.30
42037;DHT22;30340;52.004;5.908;2022-08-19T03:23:46;20.10;76.30
42037;DHT22;30340;52.004;5.908;2022-08-19T03:26:11;20.20;76.20
42037;DHT22;30340;52.004;5.908;2022-08-19T03:28:37;20.10;76.20
42037;DHT22;30340;52.004;5.908;2022-08-19T03:31:09;20.10;76.20
42037;DHT22;30340;52.004;5.908;2022-08-19T03:33:36;20.10;76.10
42037;DHT22;30340;52.004;5.908;2022-08-19T03:38:47;20.10;76.10
42037;DHT22;30340;52.004;5.908;2022-08-19T03:41:17;20.00;76.10
42037;DHT22;30340;52.004;5.908;2022-08-19T03:43:43;20.00;76.20
42037;DHT22;30340;52.004;5.908;2022-08-19T03:46:14;20.00;76.20
42037;DHT22;30340;52.004;5.908;2022-08-19T03:48:42;19.90;76.20
42037;DHT22;30340;52.004;5.908;2022-08-19T03:51:18;19.90;76.20
42037;DHT22;30340;52.004;5.908;2022-08-19T03:53:45;19.90;76.20
42037;DHT22;30340;52.004;5.908;2022-08-19T03:56:11;19.90;76.20
42037;DHT22;30340;52.004;5.908;2022-08-19T03:58:38;19.80;76.20
42037;DHT22;30340;52.004;5.908;2022-08-19T04:01:12;19.80;76.40
42037;DHT22;30340;52.004;5.908;2022-08-19T04:03:38;19.80;76.40
42037;DHT22;30340;52.004;5.908;2022-08-19T04:06:12;19.80;76.50
42037;DHT22;30340;52.004;5.908;2022-08-19T04:08:39;19.70;76.60
42037;DHT22;30340;52.004;5.908;2022-08-19T04:11:17;19.70;76.60
42037;DHT22;30340;52.004;5.908;2022-08-19T04:13:43;19.70;76.70
42037;DHT22;30340;52.004;5.908;2022-08-19T04:16:10;19.60;76.90
42037;DHT22;30340;52.004;5.908;2022-08-19T04:18:37;19.50;77.20
42037;DHT22;30340;52.004;5.908;2022-08-19T04:21:05;19.50;77.30
42037;DHT22;30340;52.004;5.908;2022-08-19T04:23:31;19.40;77.40
42037;DHT22;30340;52.004;5.908;2022-08-19T04:25:57;19.40;77.60
42037;DHT22;30340;52.004;5.908;2022-08-19T04:28:23;19.30;77.80
42037;DHT22;30340;52.004;5.908;2022-08-19T04:30:50;19.30;78.10
42037;DHT22;30340;52.004;5.908;2022-08-19T04:33:18;19.30;78.20
42037;DHT22;30340;52.004;5.908;2022-08-19T04:35:47;19.30;78.10
42037;DHT22;30340;52.004;5.908;2022-08-19T04:38:14;19.30;77.80
42037;DHT22;30340;52.004;5.908;2022-08-19T04:40:42;19.40;77.80
42037;DHT22;30340;52.004;5.908;2022-08-19T04:43:46;19.40;77.60
42037;DHT22;30340;52.004;5.908;2022-08-19T04:46:14;19.30;77.60
42037;DHT22;30340;52.004;5.908;2022-08-19T04:48:40;19.30;77.70
42037;DHT22;30340;52.004;5.908;2022-08-19T04:51:08;19.30;77.50
42037;DHT22;30340;52.004;5.908;2022-08-19T04:53:35;19.30;77.40
42037;DHT22;30340;52.004;5.908;2022-08-19T04:56:08;19.30;77.40
42037;DHT22;30340;52.004;5.908;2022-08-19T04:58:34;19.30;78.20
42037;DHT22;30340;52.004;5.908;2022-08-19T05:01:00;19.30;77.50
42037;DHT22;30340;52.004;5.908;2022-08-19T05:03:26;19.30;77.70
42037;DHT22;30340;52.004;5.908;2022-08-19T05:05:51;19.30;77.70
42037;DHT22;30340;52.004;5.908;2022-08-19T05:08:20;19.30;77.50
42037;DHT22;30340;52.004;5.908;2022-08-19T05:10:48;19.40;77.50
42037;DHT22;30340;52.004;5.908;2022-08-19T05:13:14;19.40;77.40
42037;DHT22;30340;52.004;5.908;2022-08-19T05:15:42;19.40;78.10
42037;DHT22;30340;52.004;5.908;2022-08-19T05:18:07;19.40;77.50
42037;DHT22;30340;52.004;5.908;2022-08-19T05:21:09;19.40;77.30
42037;DHT22;30340;52.004;5.908;2022-08-19T05:23:53;19.40;77.30
42037;DHT22;30340;52.004;5.908;2022-08-19T05:26:19;19.40;77.40
42037;DHT22;30340;52.004;5.908;2022-08-19T05:28:45;19.40;77.60
42037;DHT22;30340;52.004;5.908;2022-08-19T05:31:10;19.40;77.70
42037;DHT22;30340;52.004;5.908;2022-08-19T05:33:36;19.50;77.90
42037;DHT22;30340;52.004;5.908;2022-08-19T05:36:02;19.60;78.00
42037;DHT22;30340;52.004;5.908;2022-08-19T05:38:28;20.30;77.40
42037;DHT22;30340;52.004;5.908;2022-08-19T05:40:55;21.20;75.60
42037;DHT22;30340;52.004;5.908;2022-08-19T05:43:21;22.20;73.40
42037;DHT22;30340;52.004;5.908;2022-08-19T05:45:46;23.00;71.30
42037;DHT22;30340;52.004;5.908;2022-08-19T05:48:13;23.50;70.30
42037;DHT22;30340;52.004;5.908;2022-08-19T05:50:40;24.10;68.50
42037;DHT22;30340;52.004;5.908;2022-08-19T05:53:06;24.70;67.10
42037;DHT22;30340;52.004;5.908;2022-08-19T05:55:35;25.10;65.90
42037;DHT22;30340;52.004;5.908;2022-08-19T05:58:00;25.50;64.90
42037;DHT22;30340;52.004;5.908;2022-08-19T06:00:27;25.70;63.90
42037;DHT22;30340;52.004;5.908;2022-08-19T06:02:52;26.00;63.20
42037;DHT22;30340;52.004;5.908;2022-08-19T06:05:19;26.40;62.20
42037;DHT22;30340;52.004;5.908;2022-08-19T06:07:45;26.80;61.50
42037;DHT22;30340;52.004;5.908;2022-08-19T06:10:11;26.90;60.20
42037;DHT22;30340;52.004;5.908;2022-08-19T06:12:37;27.00;59.90
42037;DHT22;30340;52.004;5.908;2022-08-19T06:15:07;27.30;59.50
42037;DHT22;30340;52.004;5.908;2022-08-19T06:17:33;27.60;58.80
42037;DHT22;30340;52.004;5.908;2022-08-19T06:20:00;27.70;58.40
42037;DHT22;30340;52.004;5.908;2022-08-19T06:22:27;27.40;58.00
42037;DHT22;30340;52.004;5.908;2022-08-19T06:24:53;27.20;58.40
42037;DHT22;30340;52.004;5.908;2022-08-19T06:27:19;27.40;58.40
42037;DHT22;30340;52.004;5.908;2022-08-19T06:29:45;27.80;57.70
42037;DHT22;30340;52.004;5.908;2022-08-19T06:32:14;28.00;57.10
42037;DHT22;30340;52.004;5.908;2022-08-19T06:34:40;28.40;56.90
42037;DHT22;30340;52.004;5.908;2022-08-19T06:37:06;28.80;56.10
42037;DHT22;30340;52.004;5.908;2022-08-19T06:39:37;29.00;55.70
42037;DHT22;30340;52.004;5.908;2022-08-19T06:42:05;29.20;55.60
42037;DHT22;30340;52.004;5.908;2022-08-19T06:44:34;29.50;55.20
42037;DHT22;30340;52.004;5.908;2022-08-19T06:47:06;29.70;54.70
42037;DHT22;30340;52.004;5.908;2022-08-19T06:49:32;29.80;54.50
42037;DHT22;30340;52.004;5.908;2022-08-19T06:51:58;29.30;54.60
42037;DHT22;30340;52.004;5.908;2022-08-19T06:54:25;28.30;56.20
42037;DHT22;30340;52.004;5.908;2022-08-19T06:56:51;27.40;58.00
42037;DHT22;30340;52.004;5.908;2022-08-19T06:59:19;26.70;59.70
42037;DHT22;30340;52.004;5.908;2022-08-19T07:01:47;25.80;61.40
42037;DHT22;30340;52.004;5.908;2022-08-19T07:04:16;25.10;62.90
42037;DHT22;30340;52.004;5.908;2022-08-19T07:06:42;24.80;64.30
42037;DHT22;30340;52.004;5.908;2022-08-19T07:09:09;24.30;65.20
42037;DHT22;30340;52.004;5.908;2022-08-19T07:11:36;24.00;66.50
42037;DHT22;30340;52.004;5.908;2022-08-19T07:14:02;23.60;67.40
42037;DHT22;30340;52.004;5.908;2022-08-19T07:16:28;23.30;68.40
42037;DHT22;30340;52.004;5.908;2022-08-19T07:18:55;23.20;69.00
42037;DHT22;30340;52.004;5.908;2022-08-19T07:21:24;23.10;69.40
42037;DHT22;30340;52.004;5.908;2022-08-19T07:23:52;23.00;69.90
42037;DHT22;30340;52.004;5.908;2022-08-19T07:26:21;22.90;70.10
42037;DHT22;30340;52.004;5.908;2022-08-19T07:28:48;22.80;70.40
42037;DHT22;30340;52.004;5.908;2022-08-19T07:31:20;22.80;70.60
42037;DHT22;30340;52.004;5.908;2022-08-19T07:33:47;22.90;70.40
42037;DHT22;30340;52.004;5.908;2022-08-19T07:36:15;23.00;70.30
42037;DHT22;30340;52.004;5.908;2022-08-19T07:38:45;23.10;70.00
42037;DHT22;30340;52.004;5.908;2022-08-19T07:41:17;23.40;69.60
42037;DHT22;30340;52.004;5.908;2022-08-19T07:43:43;23.60;68.30
42037;DHT22;30340;52.004;5.908;2022-08-19T07:46:10;23.40;68.50
42037;DHT22;30340;52.004;5.908;2022-08-19T07:48:37;23.30;68.80
42037;DHT22;30340;52.004;5.908;2022-08-19T07:51:05;23.40;68.70
42037;DHT22;30340;52.004;5.908;2022-08-19T07:53:32;23.40;68.60
42037;DHT22;30340;52.004;5.908;2022-08-19T07:55:58;23.30;69.00
42037;DHT22;30340;52.004;5.908;2022-08-19T07:58:31;24.00;68.30
42037;DHT22;30340;52.004;5.908;2022-08-19T08:00:57;24.70;66.10
42037;DHT22;30340;52.004;5.908;2022-08-19T08:03:23;24.80;65.20
42037;DHT22;30340;52.004;5.908;2022-08-19T08:06:08;24.30;65.70
42037;DHT22;30340;52.004;5.908;2022-08-19T08:08:52;24.80;65.60
42037;DHT22;30340;52.004;5.908;2022-08-19T08:11:43;25.40;64.10
42037;DHT22;30340;52.004;5.908;2022-08-19T08:14:15;25.50;63.50
42037;DHT22;30340;52.004;5.908;2022-08-19T08:16:41;25.50;63.50
42037;DHT22;30340;52.004;5.908;2022-08-19T08:19:09;25.40;63.80
42037;DHT22;30340;52.004;5.908;2022-08-19T08:21:36;25.80;63.60
42037;DHT22;30340;52.004;5.908;2022-08-19T08:24:01;25.40;63.70
42037;DHT22;30340;52.004;5.908;2022-08-19T08:26:27;25.20;64.10
42037;DHT22;30340;52.004;5.908;2022-08-19T08:28:53;25.20;64.80
42037;DHT22;30340;52.004;5.908;2022-08-19T08:31:18;24.90;64.70
42037;DHT22;30340;52.004;5.908;2022-08-19T08:33:45;25.10;65.80
42037;DHT22;30340;52.004;5.908;2022-08-19T08:36:11;25.10;65.00
42037;DHT22;30340;52.004;5.908;2022-08-19T08:38:40;25.30;64.80
42037;DHT22;30340;52.004;5.908;2022-08-19T08:41:31;25.20;64.10
42037;DHT22;30340;52.004;5.908;2022-08-19T08:43:58;25.00;64.50
